Time;durP1;ratioP1;P1;durP2;ratioP2;P2;SDS_P1;SDS_P2;PMS_P1;PMS_P2;Temp;Humidity;BMP_temperature;BMP_pressure;BME280_temperature;BME280_humidity;BME280_pressure;Samples;Min_cycle;Max_cycle;Signal;HPM_P1;HPM_P2
2021/07/12 00:01:52;;;;;;;5.05;3.72;;;;;;;;;;4525095;28;20040;-61
2021/07/12 00:04:03;;;;;;;5.93;3.50;;;;;;;;;;4520256;28;20021;-60
2021/07/12 00:06:13;;;;;;;6.07;3.67;;;;;;;;;;4518263;28;20037;-60
2021/07/12 00:08:24;;;;;;;4.60;3.33;;;;;;;;;;4522639;28;20037;-61
2021/07/12 00:10:35;;;;;;;4.20;2.90;;;;;;;;;;4524118;28;20064;-60
2021/07/12 00:12:48;;;;;;;4.38;2.90;;;;;;;;;;4504448;28;20049;-60
2021/07/12 00:14:58;;;;;;;5.72;3.00;;;;;;;;;;4523581;28;20041;-61
2021/07/12 00:17:08;;;;;;;4.30;2.77;;;;;;;;;;4521900;28;20621;-61
2021/07/12 00:19:19;;;;;;;3.80;2.63;;;;;;;;;;4525474;28;20306;-61
2021/07/12 00:21:29;;;;;;;3.70;2.80;;;;;;;;;;4523719;28;20123;-60
2021/07/12 00:23:40;;;;;;;3.00;2.50;;;;;;;;;;4523574;28;20036;-60
2021/07/12 00:25:50;;;;;;;3.27;2.80;;;;;;;;;;4522302;28;20038;-61
2021/07/12 00:28:01;;;;;;;3.67;2.80;;;;;;;;;;4524536;28;20036;-61
2021/07/12 00:30:14;;;;;;;4.43;3.13;;;;;;;;;;4521311;28;20037;-60
2021/07/12 00:32:25;;;;;;;4.43;3.15;;;;;;;;;;4522967;28;20044;-60
2021/07/12 00:34:35;;;;;;;5.73;2.87;;;;;;;;;;4522059;28;20032;-60
2021/07/12 00:36:46;;;;;;;5.27;3.43;;;;;;;;;;4523623;28;20113;-61
2021/07/12 00:38:58;;;;;;;3.63;2.78;;;;;;;;;;4521789;28;20029;-60
2021/07/12 00:41:08;;;;;;;5.17;2.90;;;;;;;;;;4521432;28;20037;-60
2021/07/12 00:43:19;;;;;;;3.47;2.60;;;;;;;;;;4505543;28;20485;-61
2021/07/12 00:45:30;;;;;;;3.60;2.60;;;;;;;;;;4526171;28;20326;-60
2021/07/12 00:47:42;;;;;;;3.50;2.50;;;;;;;;;;4506010;28;20057;-61
2021/07/12 00:49:53;;;;;;;2.60;2.38;;;;;;;;;;4520349;28;20037;-60
2021/07/12 00:52:04;;;;;;;3.33;2.30;;;;;;;;;;4523005;28;20034;-61
2021/07/12 00:54:15;;;;;;;2.83;2.30;;;;;;;;;;4524067;28;20047;-60
2021/07/12 00:56:27;;;;;;;3.20;2.10;;;;;;;;;;4523507;28;20810;-61
2021/07/12 00:58:38;;;;;;;;;;;;;;;;;;4523327;28;20136;-60
2021/07/12 01:00:52;;;;;;;3.80;3.00;;;;;;;;;;4523095;28;19936;-60
2021/07/12 01:03:02;;;;;;;4.03;3.22;;;;;;;;;;4521299;28;20026;-60
2021/07/12 01:05:16;;;;;;;5.32;3.55;;;;;;;;;;4522606;28;20479;-61
2021/07/12 01:07:30;;;;;;;3.53;2.80;;;;;;;;;;4524291;28;20033;-60
2021/07/12 01:09:44;;;;;;;4.25;3.03;;;;;;;;;;4522799;28;20029;-60
2021/07/12 01:12:10;;;;;;;5.30;3.33;;;;;;;;;;4521326;28;20592;-60
2021/07/12 01:14:46;;;;;;;4.75;3.00;;;;;;;;;;4505353;28;20804;-61
2021/07/12 01:17:22;;;;;;;3.65;2.95;;;;;;;;;;4507984;28;21280;-61
2021/07/12 01:20:10;;;;;;;3.58;2.67;;;;;;;;;;4522538;28;20037;-60
2021/07/12 01:22:35;;;;;;;3.50;2.80;;;;;;;;;;4522589;28;20033;-60
2021/07/12 01:24:54;;;;;;;7.50;3.30;;;;;;;;;;4521801;28;20061;-61
2021/07/12 01:27:59;;;;;;;3.65;2.97;;;;;;;;;;4521322;28;20033;-61
2021/07/12 01:30:16;;;;;;;5.10;2.92;;;;;;;;;;4462497;28;20864;-60
2021/07/12 01:32:33;;;;;;;3.45;2.40;;;;;;;;;;4488461;28;20042;-60
2021/07/12 01:35:06;;;;;;;2.78;2.50;;;;;;;;;;4522426;28;20037;-60
2021/07/12 01:37:40;;;;;;;3.20;2.42;;;;;;;;;;4537657;28;20044;-60
2021/07/12 01:40:00;;;;;;;2.53;2.15;;;;;;;;;;4520934;28;20737;-61
2021/07/12 01:42:24;;;;;;;2.30;2.10;;;;;;;;;;4521213;28;20029;-60
2021/07/12 01:45:02;;;;;;;2.22;2.03;;;;;;;;;;4521885;28;20106;-61
2021/07/12 01:47:43;;;;;;;3.65;2.50;;;;;;;;;;4519984;28;20029;-60
2021/07/12 01:50:25;;;;;;;2.90;2.40;;;;;;;;;;4513896;28;20052;-60
2021/07/12 01:52:41;;;;;;;4.25;2.60;;;;;;;;;;4520134;28;20044;-60
2021/07/12 01:55:17;;;;;;;3.38;2.78;;;;;;;;;;4522630;28;20044;-60
2021/07/12 01:57:34;;;;;;;4.97;3.00;;;;;;;;;;4526166;28;20048;-60
2021/07/12 01:59:56;;;;;;;3.50;2.38;;;;;;;;;;4518374;28;20028;-61
2021/07/12 02:02:07;;;;;;;3.28;2.70;;;;;;;;;;4521504;28;20599;-61
2021/07/12 02:04:27;;;;;;;4.72;2.70;;;;;;;;;;4505986;28;20030;-60
2021/07/12 02:06:40;;;;;;;3.83;2.53;;;;;;;;;;4520376;28;20037;-60
2021/07/12 02:08:56;;;;;;;4.40;2.78;;;;;;;;;;4507166;28;20651;-60
2021/07/12 02:11:16;;;;;;;5.95;2.80;;;;;;;;;;4505627;28;20054;-61
2021/07/12 02:13:27;;;;;;;5.10;2.70;;;;;;;;;;4518245;28;20101;-60
2021/07/12 02:15:47;;;;;;;4.18;2.67;;;;;;;;;;4506248;28;20038;-60
2021/07/12 02:18:11;;;;;;;3.30;2.70;;;;;;;;;;4524243;28;20123;-60
2021/07/12 02:20:27;;;;;;;3.88;2.47;;;;;;;;;;4506233;28;21015;-60
2021/07/12 02:22:40;;;;;;;3.40;2.78;;;;;;;;;;4518582;28;20124;-61
2021/07/12 02:25:00;;;;;;;4.87;2.77;;;;;;;;;;4524745;28;20620;-60
2021/07/12 02:27:11;;;;;;;3.45;2.60;;;;;;;;;;4504893;28;20038;-60
2021/07/12 02:29:23;;;;;;;3.60;2.63;;;;;;;;;;4523469;28;20033;-60
2021/07/12 02:31:33;;;;;;;;;;;;;;;;;;4509468;28;20567;-60
2021/07/12 02:33:44;;;;;;;3.63;2.85;;;;;;;;;;4518791;28;20054;-60
2021/07/12 02:35:56;;;;;;;4.00;2.92;;;;;;;;;;4521591;28;20112;-60
2021/07/12 02:38:07;;;;;;;;;;;;;;;;;;4522073;28;20046;-60
2021/07/12 02:40:20;;;;;;;5.18;2.80;;;;;;;;;;4509375;28;20030;-60
2021/07/12 02:42:32;;;;;;;4.70;2.83;;;;;;;;;;4519909;28;20546;-60
2021/07/12 02:44:46;;;;;;;4.23;2.70;;;;;;;;;;4522097;28;20034;-61
2021/07/12 02:46:58;;;;;;;4.95;2.75;;;;;;;;;;4524329;28;20268;-60
2021/07/12 02:49:10;;;;;;;3.80;2.72;;;;;;;;;;4507425;28;20038;-60
2021/07/12 02:51:28;;;;;;;3.15;2.67;;;;;;;;;;4495576;28;20042;-60
2021/07/12 02:53:45;;;;;;;4.82;3.28;;;;;;;;;;4523171;28;20088;-61
2021/07/12 02:55:57;;;;;;;3.20;2.70;;;;;;;;;;4507733;28;20132;-61
2021/07/12 02:58:08;;;;;;;4.05;2.58;;;;;;;;;;4523905;28;20034;-60
2021/07/12 03:00:20;;;;;;;5.38;2.72;;;;;;;;;;4523226;28;20108;-60
2021/07/12 03:02:30;;;;;;;3.05;2.75;;;;;;;;;;4522274;28;20095;-61
2021/07/12 03:04:41;;;;;;;3.27;2.73;;;;;;;;;;4525652;28;20068;-60
2021/07/12 03:06:52;;;;;;;4.53;3.07;;;;;;;;;;4506402;28;20040;-60
2021/07/12 03:09:06;;;;;;;4.13;3.10;;;;;;;;;;4524749;28;20545;-61
2021/07/12 03:11:16;;;;;;;7.05;3.30;;;;;;;;;;4526761;28;20057;-61
2021/07/12 03:13:40;;;;;;;4.05;3.05;;;;;;;;;;4523420;28;20577;-60
2021/07/12 03:15:51;;;;;;;5.07;3.17;;;;;;;;;;4525026;28;20041;-60
2021/07/12 03:18:05;;;;;;;5.35;3.55;;;;;;;;;;4509193;28;20595;-60
2021/07/12 03:20:17;;;;;;;6.65;3.78;;;;;;;;;;4510582;28;20092;-60
2021/07/12 03:22:28;;;;;;;5.65;3.50;;;;;;;;;;4524841;28;20788;-61
2021/07/12 03:24:40;;;;;;;4.75;3.20;;;;;;;;;;4524485;28;20040;-60
2021/07/12 03:26:55;;;;;;;3.97;2.83;;;;;;;;;;4521132;28;20081;-60
2021/07/12 03:29:06;;;;;;;4.82;2.92;;;;;;;;;;4520790;28;20104;-60
2021/07/12 03:31:20;;;;;;;4.63;2.50;;;;;;;;;;4520852;28;20106;-60
2021/07/12 03:33:31;;;;;;;4.55;3.00;;;;;;;;;;4490581;28;20586;-60
2021/07/12 03:35:47;;;;;;;3.80;2.83;;;;;;;;;;4506389;28;21066;-60
2021/07/12 03:37:58;;;;;;;5.05;3.17;;;;;;;;;;4508138;28;20060;-60
2021/07/12 03:40:10;;;;;;;3.88;2.90;;;;;;;;;;4522097;28;20033;-60
2021/07/12 03:42:21;;;;;;;5.07;3.20;;;;;;;;;;4522881;28;20052;-60
2021/07/12 03:44:38;;;;;;;3.30;2.78;;;;;;;;;;4491579;28;20633;-61
2021/07/12 03:46:50;;;;;;;4.35;3.08;;;;;;;;;;4523791;28;20025;-60
2021/07/12 03:49:09;;;;;;;4.77;3.17;;;;;;;;;;4525814;28;20478;-61
2021/07/12 03:51:21;;;;;;;5.60;3.05;;;;;;;;;;4519393;28;20040;-61
2021/07/12 03:53:34;;;;;;;3.88;3.20;;;;;;;;;;4503657;28;20851;-60
2021/07/12 03:55:45;;;;;;;5.75;3.10;;;;;;;;;;4508330;28;20096;-61
2021/07/12 03:57:56;;;;;;;3.73;2.70;;;;;;;;;;4523749;28;20057;-61
2021/07/12 04:00:12;;;;;;;3.10;2.40;;;;;;;;;;4524274;28;20144;-61
2021/07/12 04:02:26;;;;;;;5.18;3.03;;;;;;;;;;4524598;28;20037;-60
2021/07/12 04:04:36;;;;;;;5.20;3.17;;;;;;;;;;4524936;28;20041;-60
2021/07/12 04:06:47;;;;;;;4.33;3.20;;;;;;;;;;4506345;28;20108;-60
2021/07/12 04:08:58;;;;;;;3.90;2.90;;;;;;;;;;4522324;28;20076;-60
2021/07/12 04:11:10;;;;;;;5.25;3.22;;;;;;;;;;4523290;28;20026;-61
2021/07/12 04:13:21;;;;;;;4.35;3.33;;;;;;;;;;4522887;28;20041;-60
2021/07/12 04:15:31;;;;;;;4.30;3.17;;;;;;;;;;4522797;28;20449;-60
2021/07/12 04:17:43;;;;;;;5.30;2.70;;;;;;;;;;4521762;28;20037;-60
2021/07/12 04:19:54;;;;;;;4.78;2.67;;;;;;;;;;4521287;28;20102;-61
2021/07/12 04:22:06;;;;;;;5.55;2.92;;;;;;;;;;4480595;28;20148;-60
2021/07/12 04:24:16;;;;;;;5.67;2.90;;;;;;;;;;4520731;28;20215;-61
2021/07/12 04:26:26;;;;;;;3.53;2.70;;;;;;;;;;4521676;28;20517;-60
2021/07/12 04:28:37;;;;;;;6.20;3.00;;;;;;;;;;4524695;28;20121;-60
2021/07/12 04:30:47;;;;;;;4.33;3.00;;;;;;;;;;4523783;28;20072;-61
2021/07/12 04:32:58;;;;;;;4.17;3.10;;;;;;;;;;4521932;28;20514;-60
2021/07/12 04:35:10;;;;;;;5.73;3.03;;;;;;;;;;4521729;28;20161;-60
2021/07/12 04:37:20;;;;;;;5.15;3.50;;;;;;;;;;4506829;28;20096;-60
2021/07/12 04:39:31;;;;;;;5.17;3.70;;;;;;;;;;4522863;28;20060;-60
2021/07/12 04:41:42;;;;;;;5.65;3.20;;;;;;;;;;4524401;28;20555;-60
2021/07/12 04:43:52;;;;;;;4.17;3.33;;;;;;;;;;4522975;28;20041;-60
2021/07/12 04:46:03;;;;;;;5.37;2.93;;;;;;;;;;4522893;28;20025;-61
2021/07/12 04:48:15;;;;;;;4.72;3.45;;;;;;;;;;4522435;28;20040;-60
2021/07/12 04:50:25;;;;;;;6.20;3.17;;;;;;;;;;4521735;28;20541;-60
2021/07/12 04:52:36;;;;;;;4.80;3.50;;;;;;;;;;4520698;28;20505;-60
2021/07/12 04:54:47;;;;;;;5.25;3.58;;;;;;;;;;4521344;28;20121;-60
2021/07/12 04:56:57;;;;;;;5.37;3.50;;;;;;;;;;4521966;28;20037;-60
2021/07/12 04:59:10;;;;;;;4.03;3.50;;;;;;;;;;4521477;28;20065;-60
2021/07/12 05:01:20;;;;;;;5.43;3.90;;;;;;;;;;4523405;28;20038;-60
2021/07/12 05:03:31;;;;;;;4.90;3.93;;;;;;;;;;4519695;28;20029;-60
2021/07/12 05:05:42;;;;;;;7.15;4.20;;;;;;;;;;4520760;28;20080;-60
2021/07/12 05:07:52;;;;;;;7.53;3.90;;;;;;;;;;4522274;28;20849;-60
2021/07/12 05:10:04;;;;;;;5.77;3.57;;;;;;;;;;4521328;28;20192;-60
2021/07/12 05:12:14;;;;;;;5.70;3.53;;;;;;;;;;4523226;28;20034;-60
2021/07/12 05:14:26;;;;;;;4.53;3.63;;;;;;;;;;4522151;28;20045;-60
2021/07/12 05:16:36;;;;;;;;;;;;;;;;;;4521671;28;20568;-61
2021/07/12 05:18:47;;;;;;;5.88;4.30;;;;;;;;;;4520723;28;19951;-60
2021/07/12 05:20:57;;;;;;;5.30;3.85;;;;;;;;;;4525108;28;21226;-60
2021/07/12 05:23:08;;;;;;;6.63;4.17;;;;;;;;;;4522647;28;20100;-60
2021/07/12 05:25:18;;;;;;;7.30;4.60;;;;;;;;;;4520131;28;20607;-60
2021/07/12 05:27:29;;;;;;;6.17;3.93;;;;;;;;;;4521776;28;20034;-60
2021/07/12 05:29:39;;;;;;;6.67;4.20;;;;;;;;;;4522248;28;20061;-60
2021/07/12 05:31:50;;;;;;;5.67;4.17;;;;;;;;;;4522948;28;20038;-61
2021/07/12 05:34:00;;;;;;;9.13;4.53;;;;;;;;;;4520049;28;20030;-60
2021/07/12 05:36:11;;;;;;;6.17;4.13;;;;;;;;;;4521302;28;20037;-60
2021/07/12 05:38:21;;;;;;;5.67;3.70;;;;;;;;;;4521152;28;20550;-60
2021/07/12 05:40:32;;;;;;;8.43;4.50;;;;;;;;;;4522913;28;20064;-60
2021/07/12 05:42:42;;;;;;;5.20;3.67;;;;;;;;;;4521589;28;20044;-60
2021/07/12 05:44:53;;;;;;;5.30;4.17;;;;;;;;;;4522185;28;20092;-60
2021/07/12 05:47:04;;;;;;;5.73;4.20;;;;;;;;;;4522965;28;20037;-60
2021/07/12 05:49:15;;;;;;;6.57;4.30;;;;;;;;;;4523542;28;20041;-60
2021/07/12 05:51:25;;;;;;;8.23;4.33;;;;;;;;;;4522923;28;20041;-61
2021/07/12 05:53:37;;;;;;;5.50;4.17;;;;;;;;;;4523598;28;20045;-60
2021/07/12 05:55:47;;;;;;;;;;;;;;;;;;4520564;28;20068;-60
2021/07/12 05:57:58;;;;;;;7.30;4.03;;;;;;;;;;4524098;28;20032;-60
2021/07/12 06:00:10;;;;;;;6.28;4.05;;;;;;;;;;4518407;28;20052;-60
2021/07/12 06:02:23;;;;;;;5.65;3.97;;;;;;;;;;4503966;28;20048;-60
2021/07/12 06:04:33;;;;;;;6.07;4.53;;;;;;;;;;4520729;28;20040;-60
2021/07/12 06:06:44;;;;;;;7.17;4.60;;;;;;;;;;4518293;28;20430;-60
2021/07/12 06:08:54;;;;;;;4.67;4.00;;;;;;;;;;4522379;28;20509;-60
2021/07/12 06:11:07;;;;;;;7.00;4.33;;;;;;;;;;4522128;28;20521;-60
2021/07/12 06:13:17;;;;;;;5.78;4.15;;;;;;;;;;4521356;28;20088;-60
2021/07/12 06:15:28;;;;;;;6.27;4.23;;;;;;;;;;4521552;28;20666;-60
2021/07/12 06:17:39;;;;;;;5.70;4.13;;;;;;;;;;4522631;28;20095;-60
2021/07/12 06:19:49;;;;;;;5.70;4.10;;;;;;;;;;4524950;28;20565;-60
2021/07/12 06:22:00;;;;;;;7.10;4.40;;;;;;;;;;4524494;28;20037;-60
2021/07/12 06:24:10;;;;;;;5.53;4.13;;;;;;;;;;4524586;28;20121;-60
2021/07/12 06:26:21;;;;;;;5.97;4.13;;;;;;;;;;4523749;28;20037;-60
2021/07/12 06:28:31;;;;;;;6.90;4.43;;;;;;;;;;4524948;28;20021;-60
2021/07/12 06:30:41;;;;;;;7.70;4.37;;;;;;;;;;4527602;28;20124;-60
2021/07/12 06:32:52;;;;;;;7.33;4.60;;;;;;;;;;4526707;28;20060;-59
2021/07/12 06:35:04;;;;;;;7.73;4.93;;;;;;;;;;4523739;28;20079;-60
2021/07/12 06:37:14;;;;;;;6.53;4.63;;;;;;;;;;4524622;28;20091;-60
2021/07/12 06:39:25;;;;;;;6.23;4.10;;;;;;;;;;4524858;28;20045;-60
2021/07/12 06:41:35;;;;;;;5.63;4.40;;;;;;;;;;4526095;28;20118;-60
2021/07/12 06:43:46;;;;;;;6.63;4.67;;;;;;;;;;4511930;28;20460;-60
2021/07/12 06:45:59;;;;;;;6.68;4.80;;;;;;;;;;4524705;28;20021;-60
2021/07/12 06:48:10;;;;;;;5.97;4.63;;;;;;;;;;4526414;28;20609;-59
2021/07/12 06:50:22;;;;;;;6.57;4.82;;;;;;;;;;4540613;28;20612;-60
2021/07/12 06:52:33;;;;;;;5.87;4.70;;;;;;;;;;4524526;28;20022;-60
2021/07/12 06:54:45;;;;;;;6.47;4.30;;;;;;;;;;4523741;28;20037;-60
2021/07/12 06:56:55;;;;;;;6.55;4.50;;;;;;;;;;4524266;28;20129;-60
2021/07/12 06:59:07;;;;;;;7.53;4.53;;;;;;;;;;4523886;28;20033;-60
2021/07/12 07:01:17;;;;;;;;;;;;;;;;;;4524781;28;20044;-60
2021/07/12 07:03:28;;;;;;;7.57;4.90;;;;;;;;;;4525386;28;20526;-60
2021/07/12 07:05:38;;;;;;;6.73;4.73;;;;;;;;;;4524443;28;20038;-60
2021/07/12 07:08:08;;;;;;;9.07;5.18;;;;;;;;;;4524041;28;20145;-60
2021/07/12 07:10:32;;;;;;;7.65;5.13;;;;;;;;;;4525868;28;20799;-60
2021/07/12 07:12:42;;;;;;;7.70;5.30;;;;;;;;;;4523817;28;20041;-60
2021/07/12 07:14:53;;;;;;;6.37;4.83;;;;;;;;;;4524118;28;20437;-60
2021/07/12 07:17:04;;;;;;;7.67;4.90;;;;;;;;;;4522322;28;20127;-60
2021/07/12 07:19:14;;;;;;;7.83;5.20;;;;;;;;;;4523143;28;20541;-60
2021/07/12 07:21:25;;;;;;;7.97;5.37;;;;;;;;;;4525340;28;20252;-60
2021/07/12 07:23:35;;;;;;;8.07;5.20;;;;;;;;;;4524509;28;20045;-60
2021/07/12 07:25:46;;;;;;;6.37;5.13;;;;;;;;;;4523255;28;20045;-59
2021/07/12 07:27:56;;;;;;;7.10;5.07;;;;;;;;;;4523705;28;20033;-59
2021/07/12 07:30:08;;;;;;;8.23;5.30;;;;;;;;;;4523934;28;20044;-60
2021/07/12 07:32:18;;;;;;;7.13;5.18;;;;;;;;;;4523302;28;20116;-60
2021/07/12 07:34:28;;;;;;;7.10;5.27;;;;;;;;;;4523437;28;20033;-60
2021/07/12 07:36:39;;;;;;;7.10;5.10;;;;;;;;;;4525043;28;20057;-60
2021/07/12 07:38:50;;;;;;;7.10;5.03;;;;;;;;;;4522300;28;20513;-60
2021/07/12 07:41:00;;;;;;;6.57;5.13;;;;;;;;;;4522027;28;20453;-60
2021/07/12 07:43:11;;;;;;;7.97;5.57;;;;;;;;;;4524344;28;20041;-60
2021/07/12 07:45:21;;;;;;;7.20;5.67;;;;;;;;;;4511190;28;20037;-60
2021/07/12 07:47:31;;;;;;;8.83;5.23;;;;;;;;;;4522578;28;20034;-60
2021/07/12 07:49:42;;;;;;;6.93;5.17;;;;;;;;;;4527373;28;20044;-60
2021/07/12 07:51:52;;;;;;;7.03;5.20;;;;;;;;;;4522993;28;20104;-60
2021/07/12 07:54:06;;;;;;;7.33;5.80;;;;;;;;;;4523133;28;20298;-60
2021/07/12 07:56:17;;;;;;;6.88;5.63;;;;;;;;;;4523720;28;20067;-60
2021/07/12 07:58:27;;;;;;;6.93;5.33;;;;;;;;;;4525204;28;20092;-60
2021/07/12 08:00:38;;;;;;;7.63;5.87;;;;;;;;;;4523692;28;20053;-60
2021/07/12 08:02:48;;;;;;;8.47;5.90;;;;;;;;;;4523319;28;20037;-59
2021/07/12 08:04:59;;;;;;;9.20;6.30;;;;;;;;;;4523915;28;20620;-60
2021/07/12 08:07:09;;;;;;;8.00;6.30;;;;;;;;;;4507054;28;20038;-60
2021/07/12 08:09:20;;;;;;;8.57;5.77;;;;;;;;;;4524011;28;21238;-60
2021/07/12 08:11:31;;;;;;;8.10;6.00;;;;;;;;;;4523262;28;20080;-60
2021/07/12 08:13:42;;;;;;;8.23;6.38;;;;;;;;;;4506739;28;20614;-60
2021/07/12 08:15:53;;;;;;;7.38;5.63;;;;;;;;;;4522400;28;20033;-60
2021/07/12 08:18:04;;;;;;;7.93;6.23;;;;;;;;;;4523039;28;20497;-60
2021/07/12 08:20:16;;;;;;;7.60;5.85;;;;;;;;;;4510418;28;20044;-60
2021/07/12 08:22:27;;;;;;;6.75;5.60;;;;;;;;;;4519850;28;20026;-60
2021/07/12 08:24:37;;;;;;;7.73;5.70;;;;;;;;;;4522103;28;20029;-60
2021/07/12 08:26:48;;;;;;;7.63;5.70;;;;;;;;;;4524739;28;20034;-60
2021/07/12 08:28:58;;;;;;;8.43;6.57;;;;;;;;;;4523310;28;20034;-60
2021/07/12 08:31:10;;;;;;;7.50;5.97;;;;;;;;;;4524129;28;20367;-60
2021/07/12 08:33:22;;;;;;;8.10;6.00;;;;;;;;;;4522929;28;20061;-60
2021/07/12 08:35:32;;;;;;;8.60;6.20;;;;;;;;;;4521527;28;20081;-60
2021/07/12 08:37:49;;;;;;;7.67;5.57;;;;;;;;;;4522365;28;20413;-60
2021/07/12 08:40:00;;;;;;;7.53;5.47;;;;;;;;;;4522172;28;20571;-60
2021/07/12 08:42:11;;;;;;;6.60;5.10;;;;;;;;;;4522280;28;20037;-60
2021/07/12 08:44:21;;;;;;;;;;;;;;;;;;4508704;28;20038;-60
2021/07/12 08:46:34;;;;;;;7.75;5.65;;;;;;;;;;4521102;28;20389;-60
2021/07/12 08:48:44;;;;;;;6.75;5.15;;;;;;;;;;4523600;28;20573;-60
2021/07/12 08:50:55;;;;;;;6.53;5.23;;;;;;;;;;4525279;28;20030;-60
2021/07/12 08:53:05;;;;;;;8.03;5.17;;;;;;;;;;4525465;28;20033;-60
2021/07/12 08:55:16;;;;;;;7.57;5.47;;;;;;;;;;4520686;28;20022;-60
2021/07/12 08:57:27;;;;;;;7.97;5.47;;;;;;;;;;4523495;28;20156;-60
2021/07/12 08:59:43;;;;;;;7.87;5.50;;;;;;;;;;4521969;28;20509;-60
2021/07/12 09:02:08;;;;;;;6.97;5.30;;;;;;;;;;4522734;28;20060;-60
2021/07/12 09:04:26;;;;;;;7.13;5.45;;;;;;;;;;4522494;28;20036;-60
2021/07/12 09:06:37;;;;;;;6.75;5.13;;;;;;;;;;4521419;28;20041;-60
2021/07/12 09:08:53;;;;;;;7.60;5.13;;;;;;;;;;4522829;28;20032;-60
2021/07/12 09:11:23;;;;;;;7.85;5.82;;;;;;;;;;4520213;28;20104;-60
2021/07/12 09:13:48;;;;;;;6.70;5.28;;;;;;;;;;4525734;28;20157;-61
2021/07/12 09:15:59;;;;;;;6.60;5.18;;;;;;;;;;4519798;28;20686;-60
2021/07/12 09:18:14;;;;;;;7.13;5.07;;;;;;;;;;4521631;28;20049;-60
2021/07/12 09:20:30;;;;;;;6.60;5.10;;;;;;;;;;4520454;28;21234;-60
2021/07/12 09:22:41;;;;;;;6.35;4.57;;;;;;;;;;4519438;28;20185;-60
2021/07/12 09:24:55;;;;;;;7.00;5.25;;;;;;;;;;4520735;28;20161;-60
2021/07/12 09:27:14;;;;;;;6.45;4.93;;;;;;;;;;4521650;28;20027;-60
2021/07/12 09:29:30;;;;;;;6.00;4.82;;;;;;;;;;4520671;28;20115;-60
2021/07/12 09:31:41;;;;;;;5.78;4.70;;;;;;;;;;4518803;28;20604;-60
2021/07/12 09:33:51;;;;;;;6.27;4.57;;;;;;;;;;4519388;28;20480;-60
2021/07/12 09:36:17;;;;;;;5.40;4.37;;;;;;;;;;4522168;28;20041;-60
2021/07/12 09:38:31;;;;;;;5.30;4.40;;;;;;;;;;4521342;28;20774;-60
2021/07/12 09:40:41;;;;;;;6.15;4.28;;;;;;;;;;4518788;28;20032;-60
2021/07/12 09:42:52;;;;;;;5.90;4.50;;;;;;;;;;4520039;28;20044;-60
2021/07/12 09:45:07;;;;;;;5.67;4.47;;;;;;;;;;4522477;28;20889;-61
2021/07/12 09:47:19;;;;;;;5.85;4.25;;;;;;;;;;4520218;28;20061;-60
2021/07/12 09:49:30;;;;;;;5.95;4.45;;;;;;;;;;4520809;28;20046;-60
2021/07/12 09:51:41;;;;;;;5.90;4.40;;;;;;;;;;4521374;28;20482;-60
2021/07/12 09:53:51;;;;;;;5.53;4.38;;;;;;;;;;4521616;28;21574;-60
2021/07/12 09:56:10;;;;;;;6.73;4.83;;;;;;;;;;4524127;28;20037;-60
2021/07/12 09:58:21;;;;;;;5.93;4.50;;;;;;;;;;4525307;28;20053;-60
2021/07/12 10:00:31;;;;;;;4.82;3.55;;;;;;;;;;4522679;28;20035;-60
2021/07/12 10:02:42;;;;;;;5.67;3.93;;;;;;;;;;4522893;28;20048;-60
2021/07/12 10:04:58;;;;;;;4.93;3.70;;;;;;;;;;4522807;28;20037;-60
2021/07/12 10:07:08;;;;;;;4.72;3.70;;;;;;;;;;4540796;28;20048;-60
2021/07/12 10:09:22;;;;;;;4.53;3.50;;;;;;;;;;4490776;28;1081016;-60
2021/07/12 10:11:32;;;;;;;4.45;3.60;;;;;;;;;;4525186;28;20568;-60
2021/07/12 10:13:43;;;;;;;5.73;3.87;;;;;;;;;;4505103;28;20042;-60
2021/07/12 10:15:53;;;;;;;4.82;3.70;;;;;;;;;;4523984;28;20034;-60
2021/07/12 10:18:05;;;;;;;4.97;3.80;;;;;;;;;;4523597;28;20077;-60
2021/07/12 10:20:17;;;;;;;4.63;3.67;;;;;;;;;;4525292;28;20044;-60
2021/07/12 10:22:33;;;;;;;;;;;;;;;;;;4530452;28;20083;-60
2021/07/12 10:24:47;;;;;;;4.88;3.90;;;;;;;;;;4526686;28;20047;-60
2021/07/12 10:26:59;;;;;;;4.38;3.28;;;;;;;;;;4525567;28;20036;-60
2021/07/12 10:29:15;;;;;;;5.55;3.60;;;;;;;;;;4522080;28;20057;-60
2021/07/12 10:31:25;;;;;;;5.25;3.95;;;;;;;;;;4523119;28;20056;-60
2021/07/12 10:33:36;;;;;;;4.40;3.40;;;;;;;;;;4526408;28;20562;-60
2021/07/12 10:35:49;;;;;;;3.87;3.17;;;;;;;;;;4523819;28;20054;-60
2021/07/12 10:37:59;;;;;;;4.65;3.40;;;;;;;;;;4512075;28;20067;-60
2021/07/12 10:40:14;;;;;;;4.17;3.50;;;;;;;;;;4524277;28;20042;-60
2021/07/12 10:42:42;;;;;;;4.30;3.47;;;;;;;;;;4527781;28;20120;-60
2021/07/12 10:45:09;;;;;;;4.13;3.22;;;;;;;;;;4528777;28;20026;-60
2021/07/12 10:47:41;;;;;;;3.75;3.00;;;;;;;;;;4507664;28;20571;-60
2021/07/12 10:49:51;;;;;;;3.78;2.97;;;;;;;;;;4510199;28;20153;-60
2021/07/12 10:52:04;;;;;;;2.80;2.50;;;;;;;;;;4526137;28;20041;-61
2021/07/12 10:54:14;;;;;;;3.40;2.78;;;;;;;;;;4507648;28;20108;-60
2021/07/12 10:56:50;;;;;;;3.87;3.10;;;;;;;;;;4524077;28;20041;-60
2021/07/12 10:59:00;;;;;;;4.30;3.10;;;;;;;;;;4525594;28;20037;-60
2021/07/12 11:01:15;;;;;;;3.23;2.63;;;;;;;;;;4526941;28;20021;-60
2021/07/12 11:03:43;;;;;;;2.80;2.47;;;;;;;;;;4525092;28;20693;-60
2021/07/12 11:05:54;;;;;;;3.13;2.83;;;;;;;;;;4524684;28;21356;-60
2021/07/12 11:08:04;;;;;;;2.93;2.50;;;;;;;;;;4522644;28;20132;-60
2021/07/12 11:10:22;;;;;;;3.30;2.70;;;;;;;;;;4525044;28;20065;-60
2021/07/12 11:12:38;;;;;;;3.30;2.70;;;;;;;;;;4522033;28;20041;-60
2021/07/12 11:15:11;;;;;;;2.92;2.38;;;;;;;;;;4539218;28;20099;-60
2021/07/12 11:17:55;;;;;;;2.50;2.10;;;;;;;;;;4521884;28;20040;-60
2021/07/12 11:20:13;;;;;;;2.97;2.50;;;;;;;;;;4524911;28;20037;-59
2021/07/12 11:22:23;;;;;;;2.60;2.22;;;;;;;;;;4524214;28;20038;-60
2021/07/12 11:24:34;;;;;;;2.40;1.98;;;;;;;;;;4523745;28;20520;-60
2021/07/12 11:26:47;;;;;;;2.33;1.97;;;;;;;;;;4521939;28;20064;-60
2021/07/12 11:28:59;;;;;;;2.17;1.85;;;;;;;;;;4505202;28;20037;-60
2021/07/12 11:31:47;;;;;;;2.15;1.95;;;;;;;;;;4523788;28;20087;-60
2021/07/12 11:33:58;;;;;;;2.13;1.92;;;;;;;;;;4541477;28;20136;-60
2021/07/12 11:36:09;;;;;;;2.47;1.70;;;;;;;;;;4523007;28;20832;-60
2021/07/12 11:38:20;;;;;;;2.20;2.00;;;;;;;;;;4523085;28;20099;-60
2021/07/12 11:40:31;;;;;;;2.15;1.85;;;;;;;;;;4524981;28;20067;-60
2021/07/12 11:42:42;;;;;;;2.10;1.90;;;;;;;;;;4522770;28;20608;-60
2021/07/12 11:45:09;;;;;;;2.05;1.85;;;;;;;;;;4506094;28;20030;-60
2021/07/12 11:47:52;;;;;;;1.73;1.60;;;;;;;;;;4521351;28;20604;-60
2021/07/12 11:50:10;;;;;;;2.28;1.90;;;;;;;;;;4522579;28;20041;-60
2021/07/12 11:52:22;;;;;;;2.00;1.80;;;;;;;;;;4493495;28;20058;-60
2021/07/12 11:54:33;;;;;;;2.03;1.83;;;;;;;;;;4521134;28;20033;-59
2021/07/12 11:56:57;;;;;;;2.10;1.90;;;;;;;;;;4521826;28;20033;-60
2021/07/12 11:59:07;;;;;;;2.33;2.03;;;;;;;;;;4524583;28;20048;-60
2021/07/12 12:01:19;;;;;;;1.70;1.60;;;;;;;;;;4507558;28;20045;-61
2021/07/12 12:03:31;;;;;;;2.10;1.88;;;;;;;;;;4523449;28;20131;-60
2021/07/12 12:05:42;;;;;;;;;;;;;;;;;;4525298;28;20028;-59
2021/07/12 12:07:57;;;;;;;2.20;2.00;;;;;;;;;;4523136;28;19921;-60
2021/07/12 12:10:12;;;;;;;2.40;2.03;;;;;;;;;;4524218;28;20038;-60
2021/07/12 12:12:30;;;;;;;2.22;2.00;;;;;;;;;;4526273;28;20577;-60
2021/07/12 12:14:40;;;;;;;2.10;1.90;;;;;;;;;;4509407;28;20026;-60
2021/07/12 12:16:51;;;;;;;2.57;2.27;;;;;;;;;;4522945;28;20037;-60
2021/07/12 12:19:10;;;;;;;2.17;1.90;;;;;;;;;;4521849;28;21293;-60
2021/07/12 12:21:25;;;;;;;2.38;1.90;;;;;;;;;;4523925;28;23234;-61
2021/07/12 12:23:36;;;;;;;2.10;1.90;;;;;;;;;;4537216;28;20057;-60
2021/07/12 12:25:46;;;;;;;2.23;1.93;;;;;;;;;;4522424;28;20541;-60
2021/07/12 12:27:57;;;;;;;2.10;1.87;;;;;;;;;;4523469;28;20285;-60
2021/07/12 12:30:08;;;;;;;2.30;2.00;;;;;;;;;;4522520;28;20128;-60
2021/07/12 12:32:34;;;;;;;2.22;2.03;;;;;;;;;;4522454;28;20654;-60
2021/07/12 12:34:45;;;;;;;2.35;2.00;;;;;;;;;;4519807;28;20044;-60
2021/07/12 12:36:55;;;;;;;2.00;1.80;;;;;;;;;;4522632;28;20043;-60
2021/07/12 12:39:08;;;;;;;2.83;1.70;;;;;;;;;;4522850;28;20659;-60
2021/07/12 12:41:22;;;;;;;2.33;1.85;;;;;;;;;;4523488;28;20033;-60
2021/07/12 12:43:34;;;;;;;2.50;1.92;;;;;;;;;;4526466;28;21315;-60
2021/07/12 12:45:50;;;;;;;2.33;2.10;;;;;;;;;;4522001;28;20597;-60
2021/07/12 12:48:01;;;;;;;2.20;2.00;;;;;;;;;;4523599;28;20045;-59
2021/07/12 12:50:13;;;;;;;1.93;1.73;;;;;;;;;;4523837;28;20489;-60
2021/07/12 12:52:30;;;;;;;2.20;2.00;;;;;;;;;;4521351;28;20083;-60
2021/07/12 12:54:43;;;;;;;1.92;1.80;;;;;;;;;;4540378;28;20115;-60
2021/07/12 12:56:56;;;;;;;2.10;1.90;;;;;;;;;;4525809;28;20623;-60
2021/07/12 12:59:07;;;;;;;2.22;2.00;;;;;;;;;;4520784;28;20128;-60
2021/07/12 13:01:17;;;;;;;1.90;1.73;;;;;;;;;;4522542;28;20513;-60
2021/07/12 13:03:28;;;;;;;2.07;1.87;;;;;;;;;;4522466;28;20037;-60
2021/07/12 13:05:39;;;;;;;2.23;1.90;;;;;;;;;;4523853;28;20042;-60
2021/07/12 13:07:58;;;;;;;1.90;1.77;;;;;;;;;;4505665;28;20038;-62
2021/07/12 13:10:10;;;;;;;2.05;1.80;;;;;;;;;;4522612;28;20072;-61
2021/07/12 13:12:21;;;;;;;2.10;1.90;;;;;;;;;;4506426;28;20041;-61
2021/07/12 13:14:31;;;;;;;1.85;1.75;;;;;;;;;;4521533;28;20030;-60
2021/07/12 13:16:44;;;;;;;2.00;1.80;;;;;;;;;;4521444;28;20038;-60
2021/07/12 13:18:54;;;;;;;2.40;2.13;;;;;;;;;;4524768;28;20729;-60
2021/07/12 13:21:05;;;;;;;2.33;2.03;;;;;;;;;;4525885;28;22056;-60
2021/07/12 13:23:28;;;;;;;2.27;2.03;;;;;;;;;;4520836;28;20045;-60
2021/07/12 13:25:40;;;;;;;2.15;1.95;;;;;;;;;;4522343;28;21811;-60